createdAt,value
2022-09-03T00:00:37.769Z,15
2022-09-03T00:01:37.722Z,14
2022-09-03T00:02:37.722Z,12
2022-09-03T00:03:37.723Z,12
2022-09-03T00:04:37.723Z,11
2022-09-03T00:05:37.723Z,10
2022-09-03T00:06:37.746Z,10
2022-09-03T00:07:37.746Z,12
2022-09-03T00:08:37.747Z,11
2022-09-03T00:09:37.747Z,11
2022-09-03T00:10:37.748Z,11
2022-09-03T00:11:37.748Z,9
2022-09-03T00:12:37.749Z,8
2022-09-03T00:13:37.749Z,9
2022-09-03T00:14:37.749Z,9
2022-09-03T00:15:37.774Z,11
2022-09-03T00:16:37.728Z,11
2022-09-03T00:17:37.728Z,9
2022-09-03T00:18:37.728Z,10
2022-09-03T00:19:37.729Z,11
2022-09-03T00:20:37.729Z,9
2022-09-03T00:21:37.752Z,11
2022-09-03T00:22:37.752Z,11
2022-09-03T00:23:37.753Z,10
2022-09-03T00:24:37.762Z,12
2022-09-03T00:25:37.754Z,9
2022-09-03T00:26:37.754Z,10
2022-09-03T00:27:37.754Z,9
2022-09-03T00:28:37.755Z,10
2022-09-03T00:29:37.755Z,11
2022-09-03T00:30:37.756Z,13
2022-09-03T00:31:37.733Z,10
2022-09-03T00:32:37.734Z,11
2022-09-03T00:33:37.734Z,11
2022-09-03T00:34:37.735Z,11
2022-09-03T00:35:37.735Z,11
2022-09-03T00:36:37.736Z,10
2022-09-03T00:37:37.758Z,11
2022-09-03T00:38:37.758Z,12
2022-09-03T00:39:37.759Z,11
2022-09-03T00:40:37.759Z,11
2022-09-03T00:41:37.760Z,9
2022-09-03T00:42:37.760Z,10
2022-09-03T00:43:37.761Z,11
2022-09-03T00:44:37.761Z,10
2022-09-03T00:45:37.761Z,11
2022-09-03T00:46:37.739Z,11
2022-09-03T00:47:37.740Z,13
2022-09-03T00:48:37.740Z,10
2022-09-03T00:49:37.740Z,13
2022-09-03T00:50:37.741Z,11
2022-09-03T00:51:37.741Z,12
2022-09-03T00:52:37.764Z,10
2022-09-03T00:53:37.764Z,7
2022-09-03T00:54:37.765Z,7
2022-09-03T00:55:37.765Z,7
2022-09-03T00:56:37.766Z,7
2022-09-03T00:57:37.766Z,12
2022-09-03T00:58:37.766Z,7
2022-09-03T00:59:37.767Z,8
2022-09-03T01:00:37.768Z,8
2022-09-03T01:01:37.745Z,9
2022-09-03T01:02:37.746Z,8
2022-09-03T01:03:37.746Z,9
2022-09-03T01:04:37.746Z,8
2022-09-03T01:05:37.747Z,9
2022-09-03T01:06:37.747Z,7
2022-09-03T01:07:37.770Z,8
2022-09-03T01:08:37.770Z,8
2022-09-03T01:09:37.771Z,8
2022-09-03T01:10:37.771Z,8
2022-09-03T01:11:37.771Z,9
2022-09-03T01:12:37.772Z,8
2022-09-03T01:13:37.772Z,8
2022-09-03T01:14:37.773Z,6
2022-09-03T01:15:37.773Z,8
2022-09-03T01:16:37.751Z,8
2022-09-03T01:17:37.751Z,7
2022-09-03T01:18:37.752Z,7
2022-09-03T01:19:37.752Z,8
2022-09-03T01:20:37.753Z,6
2022-09-03T01:21:37.753Z,6
2022-09-03T01:22:37.776Z,8
2022-09-03T01:23:37.776Z,9
2022-09-03T01:24:37.776Z,9
2022-09-03T01:25:37.777Z,9
2022-09-03T01:26:37.777Z,9
2022-09-03T01:27:37.778Z,10
2022-09-03T01:28:37.778Z,9
2022-09-03T01:29:37.779Z,12
2022-09-03T01:30:37.779Z,13
2022-09-03T01:31:37.797Z,11
2022-09-03T01:32:37.757Z,12
2022-09-03T01:33:37.758Z,8
2022-09-03T01:34:37.780Z,9
2022-09-03T01:35:37.758Z,9
2022-09-03T01:36:37.759Z,9
2022-09-03T01:37:37.792Z,8
2022-09-03T01:38:37.782Z,9
2022-09-03T01:39:37.782Z,7
2022-09-03T01:40:37.799Z,8
2022-09-03T01:41:37.783Z,9
2022-09-03T01:42:37.783Z,7
2022-09-03T01:43:37.784Z,9
2022-09-03T01:44:37.784Z,8
2022-09-03T01:45:37.785Z,8
2022-09-03T01:46:37.785Z,6
2022-09-03T01:47:37.763Z,4
2022-09-03T01:48:37.763Z,5
2022-09-03T01:49:37.764Z,4
2022-09-03T01:50:37.764Z,4
2022-09-03T01:51:37.765Z,6
2022-09-03T01:52:37.765Z,5
2022-09-03T01:53:37.788Z,7
2022-09-03T01:54:37.788Z,6
2022-09-03T01:55:37.789Z,7
2022-09-03T01:56:37.789Z,6
2022-09-03T01:57:37.789Z,6
2022-09-03T01:58:37.790Z,7
2022-09-03T01:59:37.790Z,7
2022-09-03T02:00:37.791Z,11
2022-09-03T02:01:37.791Z,11
2022-09-03T02:02:37.769Z,11
2022-09-03T02:03:37.769Z,11
2022-09-03T02:04:37.770Z,12
2022-09-03T02:05:37.770Z,10
2022-09-03T02:06:37.770Z,12
2022-09-03T02:07:37.771Z,12
2022-09-03T02:08:37.794Z,12
2022-09-03T02:09:37.794Z,11
2022-09-03T02:10:37.794Z,16
2022-09-03T02:11:37.795Z,11
2022-09-03T02:12:37.795Z,11
2022-09-03T02:13:37.796Z,12
2022-09-03T02:14:37.796Z,13
2022-09-03T02:15:37.796Z,10
2022-09-03T02:16:37.797Z,11
2022-09-03T02:17:37.775Z,11
2022-09-03T02:18:37.775Z,10
2022-09-03T02:19:37.775Z,10
2022-09-03T02:20:37.776Z,10
2022-09-03T02:21:37.776Z,11
2022-09-03T02:22:37.776Z,11
2022-09-03T02:23:37.799Z,9
2022-09-03T02:24:37.800Z,9
2022-09-03T02:25:37.800Z,8
2022-09-03T02:26:37.800Z,9
2022-09-03T02:27:37.801Z,10
2022-09-03T02:28:37.801Z,11
2022-09-03T02:29:37.802Z,11
2022-09-03T02:30:37.802Z,13
2022-09-03T02:31:37.802Z,13
2022-09-03T02:32:37.780Z,14
2022-09-03T02:33:37.781Z,19
2022-09-03T02:34:37.781Z,14
2022-09-03T02:35:37.781Z,14
2022-09-03T02:36:37.782Z,13
2022-09-03T02:37:37.782Z,10
2022-09-03T02:38:37.805Z,16
2022-09-03T02:39:37.805Z,14
2022-09-03T02:40:37.806Z,15
2022-09-03T02:41:37.806Z,14
2022-09-03T02:42:37.807Z,16
2022-09-03T02:43:37.807Z,14
2022-09-03T02:44:37.807Z,12
2022-09-03T02:45:37.808Z,13
2022-09-03T02:46:37.808Z,10
2022-09-03T02:47:37.786Z,12
2022-09-03T02:48:37.786Z,11
2022-09-03T02:49:37.787Z,10
2022-09-03T02:50:37.787Z,12
2022-09-03T02:51:37.787Z,10
2022-09-03T02:52:37.788Z,8
2022-09-03T02:53:37.811Z,6
2022-09-03T02:54:37.811Z,7
2022-09-03T02:55:37.811Z,7
2022-09-03T02:56:37.812Z,6
2022-09-03T02:57:37.812Z,5
2022-09-03T02:58:37.813Z,6
2022-09-03T02:59:37.830Z,6
2022-09-03T03:00:37.813Z,8
2022-09-03T03:01:37.814Z,6
2022-09-03T03:02:37.855Z,9
2022-09-03T03:03:37.792Z,7
2022-09-03T03:04:37.792Z,7
2022-09-03T03:05:37.793Z,6
2022-09-03T03:06:37.793Z,8
2022-09-03T03:07:37.794Z,9
2022-09-03T03:08:37.794Z,8
2022-09-03T03:09:37.817Z,8
2022-09-03T03:10:37.817Z,7
2022-09-03T03:11:37.818Z,8
2022-09-03T03:12:37.818Z,8
2022-09-03T03:13:37.818Z,8
2022-09-03T03:14:37.819Z,9
2022-09-03T03:15:37.819Z,9
2022-09-03T03:16:37.820Z,7
2022-09-03T03:17:37.885Z,7
2022-09-03T03:18:37.798Z,9
2022-09-03T03:19:37.798Z,10
2022-09-03T03:20:37.821Z,12
2022-09-03T03:21:37.799Z,11
2022-09-03T03:22:37.799Z,12
2022-09-03T03:23:37.833Z,12
2022-09-03T03:24:37.822Z,12
2022-09-03T03:25:37.823Z,13
2022-09-03T03:26:37.839Z,13
2022-09-03T03:27:37.824Z,11
2022-09-03T03:28:37.824Z,13
2022-09-03T03:29:37.824Z,14
2022-09-03T03:30:37.825Z,11
2022-09-03T03:31:37.825Z,11
2022-09-03T03:32:37.826Z,11
2022-09-03T03:33:37.803Z,12
2022-09-03T03:34:37.804Z,11
2022-09-03T03:35:37.804Z,10
2022-09-03T03:36:37.805Z,10
2022-09-03T03:37:37.805Z,10
2022-09-03T03:38:37.805Z,10
2022-09-03T03:39:37.828Z,9
2022-09-03T03:40:37.829Z,8
2022-09-03T03:41:37.829Z,8
2022-09-03T03:42:37.829Z,7
2022-09-03T03:43:37.830Z,10
2022-09-03T03:44:37.830Z,11
2022-09-03T03:45:37.831Z,11
2022-09-03T03:46:37.831Z,12
2022-09-03T03:47:37.831Z,10
2022-09-03T03:48:37.809Z,10
2022-09-03T03:49:37.810Z,12
2022-09-03T03:50:37.810Z,9
2022-09-03T03:51:37.810Z,10
2022-09-03T03:52:37.811Z,12
2022-09-03T03:53:37.811Z,12
2022-09-03T03:54:37.834Z,9
2022-09-03T03:55:37.834Z,7
2022-09-03T03:56:37.835Z,7
2022-09-03T03:57:37.835Z,9
2022-09-03T03:58:37.835Z,10
2022-09-03T03:59:37.836Z,7
2022-09-03T04:00:37.836Z,6
2022-09-03T04:01:37.837Z,8
2022-09-03T04:02:37.837Z,6
2022-09-03T04:03:37.815Z,8
2022-09-03T04:04:37.815Z,6
2022-09-03T04:05:37.816Z,6
2022-09-03T04:06:37.816Z,6
2022-09-03T04:07:37.817Z,6
2022-09-03T04:08:37.817Z,6
2022-09-03T04:09:39.618Z,5
2022-09-03T04:10:37.840Z,6
2022-09-03T04:11:37.865Z,5
2022-09-03T04:12:37.841Z,6
2022-09-03T04:13:37.841Z,5
2022-09-03T04:14:37.842Z,5
2022-09-03T04:15:37.842Z,5
2022-09-03T04:16:37.842Z,6
2022-09-03T04:17:37.843Z,6
2022-09-03T04:18:37.821Z,6
2022-09-03T04:19:37.821Z,6
2022-09-03T04:20:37.821Z,6
2022-09-03T04:21:37.822Z,6
2022-09-03T04:22:37.822Z,7
2022-09-03T04:23:37.823Z,10
2022-09-03T04:24:37.845Z,8
2022-09-03T04:25:37.846Z,8
2022-09-03T04:26:37.846Z,8
2022-09-03T04:27:37.847Z,9
2022-09-03T04:28:37.847Z,6
2022-09-03T04:29:37.847Z,7
2022-09-03T04:30:37.848Z,9
2022-09-03T04:31:37.848Z,9
2022-09-03T04:32:37.849Z,11
2022-09-03T04:33:37.826Z,8
2022-09-03T04:34:37.827Z,9
2022-09-03T04:35:37.827Z,10
2022-09-03T04:36:37.828Z,9
2022-09-03T04:37:37.828Z,11
2022-09-03T04:38:37.828Z,10
2022-09-03T04:39:37.851Z,11
2022-09-03T04:40:37.851Z,10
2022-09-03T04:41:37.852Z,9
2022-09-03T04:42:37.852Z,14
2022-09-03T04:43:37.853Z,9
2022-09-03T04:44:37.853Z,13
2022-09-03T04:45:37.854Z,16
2022-09-03T04:46:37.854Z,13
2022-09-03T04:47:37.854Z,9
2022-09-03T04:48:37.879Z,10
2022-09-03T04:49:37.833Z,13
2022-09-03T04:50:37.833Z,14
2022-09-03T04:51:37.833Z,13
2022-09-03T04:52:37.834Z,15
2022-09-03T04:53:37.834Z,13
2022-09-03T04:54:37.857Z,15
2022-09-03T04:55:37.857Z,15
2022-09-03T04:56:37.857Z,16
2022-09-03T04:57:37.866Z,15
2022-09-03T04:58:37.858Z,17
2022-09-03T04:59:37.859Z,16
2022-09-03T05:00:37.859Z,18
2022-09-03T05:01:37.860Z,14
2022-09-03T05:02:37.860Z,15
2022-09-03T05:03:37.860Z,15
2022-09-03T05:04:37.838Z,12
2022-09-03T05:05:37.839Z,12
2022-09-03T05:06:37.839Z,13
2022-09-03T05:07:37.839Z,12
2022-09-03T05:08:37.840Z,11
2022-09-03T05:09:45.617Z,13
2022-09-03T05:10:37.863Z,11
2022-09-03T05:11:37.863Z,13
2022-09-03T05:12:37.888Z,11
2022-09-03T05:13:37.864Z,11
2022-09-03T05:14:37.865Z,10
2022-09-03T05:15:37.865Z,11
2022-09-03T05:16:37.865Z,11
2022-09-03T05:17:37.866Z,10
2022-09-03T05:18:37.866Z,5
2022-09-03T05:19:37.844Z,6
2022-09-03T05:20:37.845Z,5
2022-09-03T05:21:37.845Z,8
2022-09-03T05:22:37.845Z,9
2022-09-03T05:23:37.846Z,9
2022-09-03T05:24:37.846Z,9
2022-09-03T05:25:37.869Z,11
2022-09-03T05:26:37.869Z,7
2022-09-03T05:27:37.869Z,6
2022-09-03T05:28:37.870Z,7
2022-09-03T05:29:37.870Z,5
2022-09-03T05:30:37.871Z,8
2022-09-03T05:31:37.871Z,6
2022-09-03T05:32:37.872Z,9
2022-09-03T05:33:37.872Z,10
2022-09-03T05:34:37.850Z,11
2022-09-03T05:35:37.850Z,10
2022-09-03T05:36:37.851Z,8
2022-09-03T05:37:37.851Z,10
2022-09-03T05:38:37.851Z,9
2022-09-03T05:39:37.852Z,10
2022-09-03T05:40:37.874Z,12
2022-09-03T05:41:37.875Z,10
2022-09-03T05:42:37.875Z,8
2022-09-03T05:43:37.876Z,10
2022-09-03T05:44:37.876Z,10
2022-09-03T05:45:37.876Z,10
2022-09-03T05:46:37.877Z,9
2022-09-03T05:47:37.877Z,10
2022-09-03T05:48:37.878Z,16
2022-09-03T05:49:37.856Z,11
2022-09-03T05:50:37.856Z,14
2022-09-03T05:51:37.856Z,14
2022-09-03T05:52:37.857Z,18
2022-09-03T05:53:37.857Z,17
2022-09-03T05:54:37.858Z,19
2022-09-03T05:55:37.880Z,20
2022-09-03T05:56:37.881Z,19
2022-09-03T05:57:37.881Z,17
2022-09-03T05:58:37.882Z,20
2022-09-03T05:59:37.882Z,16
2022-09-03T06:00:37.882Z,15
2022-09-03T06:01:37.883Z,14
2022-09-03T06:02:37.883Z,13
2022-09-03T06:03:37.884Z,14
2022-09-03T06:04:37.901Z,15
2022-09-03T06:05:37.862Z,12
2022-09-03T06:06:37.862Z,18
2022-09-03T06:07:37.885Z,16
2022-09-03T06:08:37.863Z,15
2022-09-03T06:09:43.398Z,21
2022-09-03T06:10:37.886Z,16
2022-09-03T06:11:37.887Z,15
2022-09-03T06:12:37.887Z,15
2022-09-03T06:13:37.887Z,16
2022-09-03T06:14:37.888Z,20
2022-09-03T06:15:37.888Z,17
2022-09-03T06:16:37.889Z,16
2022-09-03T06:17:37.889Z,22
2022-09-03T06:18:37.890Z,18
2022-09-03T06:19:37.907Z,16
2022-09-03T06:20:37.868Z,14
2022-09-03T06:21:37.868Z,20
2022-09-03T06:22:37.891Z,17
2022-09-03T06:23:37.869Z,16
2022-09-03T06:24:37.869Z,15
2022-09-03T06:25:37.903Z,11
2022-09-03T06:26:37.893Z,13
2022-09-03T06:27:37.893Z,13
2022-09-03T06:28:37.910Z,16
2022-09-03T06:29:37.894Z,16
2022-09-03T06:30:37.894Z,15
2022-09-03T06:31:37.895Z,12
2022-09-03T06:32:37.895Z,16
2022-09-03T06:33:37.896Z,18
2022-09-03T06:34:37.896Z,12
2022-09-03T06:35:37.874Z,12
2022-09-03T06:36:37.874Z,14
2022-09-03T06:37:37.875Z,14
2022-09-03T06:38:37.875Z,14
2022-09-03T06:39:37.875Z,19
2022-09-03T06:40:37.876Z,21
2022-09-03T06:41:37.898Z,15
2022-09-03T06:42:37.899Z,13
2022-09-03T06:43:37.899Z,18
2022-09-03T06:44:37.900Z,17
2022-09-03T06:45:37.900Z,20
2022-09-03T06:46:37.901Z,18
2022-09-03T06:47:37.901Z,18
2022-09-03T06:48:37.902Z,12
2022-09-03T06:49:37.902Z,10
2022-09-03T06:50:37.880Z,15
2022-09-03T06:51:37.880Z,19
2022-09-03T06:52:37.881Z,23
2022-09-03T06:53:37.881Z,16
2022-09-03T06:54:37.881Z,15
2022-09-03T06:55:37.882Z,12
2022-09-03T06:56:37.905Z,13
2022-09-03T06:57:37.905Z,20
2022-09-03T06:58:37.906Z,22
2022-09-03T06:59:37.906Z,23
2022-09-03T07:00:37.906Z,20
2022-09-03T07:01:37.907Z,14
2022-09-03T07:02:37.907Z,16
2022-09-03T07:03:37.907Z,13
2022-09-03T07:04:37.908Z,14
2022-09-03T07:05:37.973Z,18
2022-09-03T07:06:37.886Z,16
2022-09-03T07:07:37.887Z,15
2022-09-03T07:08:37.909Z,15
2022-09-03T07:09:37.887Z,14
2022-09-03T07:10:37.888Z,14
2022-09-03T07:11:37.911Z,17
2022-09-03T07:12:37.911Z,19
2022-09-03T07:13:37.912Z,21
2022-09-03T07:14:37.976Z,19
2022-09-03T07:15:37.912Z,32
2022-09-03T07:16:37.913Z,22
2022-09-03T07:17:37.913Z,29
2022-09-03T07:18:37.914Z,30
2022-09-03T07:19:37.914Z,31
2022-09-03T07:20:37.892Z,34
2022-09-03T07:21:37.892Z,26
2022-09-03T07:22:37.893Z,32
2022-09-03T07:23:37.893Z,27
2022-09-03T07:24:37.894Z,25
2022-09-03T07:25:37.894Z,28
2022-09-03T07:26:37.917Z,31
2022-09-03T07:27:37.917Z,29
2022-09-03T07:28:37.918Z,24
2022-09-03T07:29:37.918Z,32
2022-09-03T07:30:37.918Z,37
2022-09-03T07:31:37.919Z,33
2022-09-03T07:32:37.920Z,34
2022-09-03T07:33:37.920Z,35
2022-09-03T07:34:37.920Z,39
2022-09-03T07:35:37.898Z,29
2022-09-03T07:36:37.899Z,35
2022-09-03T07:37:37.899Z,28
2022-09-03T07:38:37.899Z,30
2022-09-03T07:39:37.900Z,32
2022-09-03T07:40:37.900Z,38
2022-09-03T07:41:37.923Z,44
2022-09-03T07:42:37.923Z,31
2022-09-03T07:43:37.924Z,28
2022-09-03T07:44:37.924Z,26
2022-09-03T07:45:37.925Z,35
2022-09-03T07:46:37.925Z,29
2022-09-03T07:47:37.926Z,27
2022-09-03T07:48:37.926Z,24
2022-09-03T07:49:37.927Z,29
2022-09-03T07:50:37.992Z,26
2022-09-03T07:51:37.905Z,29
2022-09-03T07:52:37.905Z,24
2022-09-03T07:53:37.928Z,29
2022-09-03T07:54:37.906Z,27
2022-09-03T07:55:37.907Z,34
2022-09-03T07:56:37.944Z,28
2022-09-03T07:57:37.930Z,30
2022-09-03T07:58:37.930Z,30
2022-09-03T07:59:37.947Z,36
2022-09-03T08:00:37.931Z,37
2022-09-03T08:01:37.932Z,38
2022-09-03T08:02:37.933Z,26
2022-09-03T08:03:37.933Z,30
2022-09-03T08:04:37.933Z,33
2022-09-03T08:05:37.933Z,26
2022-09-03T08:06:37.911Z,23
2022-09-03T08:07:37.912Z,28
2022-09-03T08:08:37.912Z,31
2022-09-03T08:09:37.913Z,42
2022-09-03T08:10:37.913Z,37
2022-09-03T08:11:37.914Z,37
2022-09-03T08:12:37.936Z,39
2022-09-03T08:13:37.937Z,38
2022-09-03T08:14:37.937Z,37
2022-09-03T08:15:37.938Z,39
2022-09-03T08:16:37.938Z,31
2022-09-03T08:17:37.939Z,31
2022-09-03T08:18:37.939Z,41
2022-09-03T08:19:37.940Z,37
2022-09-03T08:20:37.940Z,45
2022-09-03T08:21:37.918Z,42
2022-09-03T08:22:37.919Z,42
2022-09-03T08:23:37.919Z,32
2022-09-03T08:24:37.920Z,35
2022-09-03T08:25:37.920Z,35
2022-09-03T08:26:37.920Z,33
2022-09-03T08:27:37.943Z,32
2022-09-03T08:28:37.944Z,37
2022-09-03T08:29:37.944Z,28
2022-09-03T08:30:37.945Z,37
2022-09-03T08:31:37.945Z,39
2022-09-03T08:32:37.946Z,48
2022-09-03T08:33:37.946Z,38
2022-09-03T08:34:37.947Z,50
2022-09-03T08:35:37.947Z,49
2022-09-03T08:36:37.925Z,39
2022-09-03T08:37:37.926Z,35
2022-09-03T08:38:37.926Z,50
2022-09-03T08:39:37.927Z,48
2022-09-03T08:40:37.927Z,49
2022-09-03T08:41:37.928Z,38
2022-09-03T08:42:37.951Z,38
2022-09-03T08:43:37.951Z,42
2022-09-03T08:44:37.952Z,47
2022-09-03T08:45:37.953Z,47
2022-09-03T08:46:37.953Z,52
2022-09-03T08:47:37.953Z,53
2022-09-03T08:48:37.954Z,54
2022-09-03T08:49:37.955Z,55
2022-09-03T08:50:37.955Z,62
2022-09-03T08:51:37.933Z,59
2022-09-03T08:52:37.934Z,53
2022-09-03T08:53:37.934Z,57
2022-09-03T08:54:37.935Z,62
2022-09-03T08:55:37.935Z,59
2022-09-03T08:56:37.936Z,55
2022-09-03T08:57:37.958Z,60
2022-09-03T08:58:37.959Z,56
2022-09-03T08:59:37.959Z,63
2022-09-03T09:00:37.960Z,66
2022-09-03T09:01:37.961Z,59
2022-09-03T09:02:37.961Z,61
2022-09-03T09:03:38.026Z,62
2022-09-03T09:04:37.962Z,56
2022-09-03T09:05:37.963Z,49
2022-09-03T09:06:37.941Z,45
2022-09-03T09:07:37.941Z,53
2022-09-03T09:08:37.942Z,57
2022-09-03T09:09:37.942Z,55
2022-09-03T09:10:37.943Z,62
2022-09-03T09:11:37.943Z,59
2022-09-03T09:12:37.966Z,43
2022-09-03T09:13:37.967Z,37
2022-09-03T09:14:37.967Z,43
2022-09-03T09:15:37.968Z,62
2022-09-03T09:16:37.968Z,49
2022-09-03T09:17:37.969Z,45
2022-09-03T09:18:38.034Z,44
2022-09-03T09:19:37.970Z,39
2022-09-03T09:20:37.970Z,44
2022-09-03T09:21:38.011Z,48
2022-09-03T09:22:37.949Z,48
2022-09-03T09:23:37.949Z,52
2022-09-03T09:24:37.950Z,44
2022-09-03T09:25:37.950Z,41
2022-09-03T09:26:37.951Z,36
2022-09-03T09:27:37.951Z,47
2022-09-03T09:28:37.974Z,50
2022-09-03T09:29:37.974Z,49
2022-09-03T09:30:37.975Z,63
2022-09-03T09:31:37.976Z,57
2022-09-03T09:32:37.976Z,51
2022-09-03T09:33:37.977Z,48
2022-09-03T09:34:37.977Z,45
2022-09-03T09:35:37.978Z,45
2022-09-03T09:36:38.043Z,49
2022-09-03T09:37:37.956Z,59
2022-09-03T09:38:37.957Z,53
2022-09-03T09:39:37.979Z,45
2022-09-03T09:40:37.958Z,47
2022-09-03T09:41:37.958Z,48
2022-09-03T09:42:37.984Z,60
2022-09-03T09:43:37.982Z,54
2022-09-03T09:44:37.982Z,52
2022-09-03T09:45:37.999Z,68
2022-09-03T09:46:37.983Z,51
2022-09-03T09:47:37.984Z,48
2022-09-03T09:48:37.984Z,58
2022-09-03T09:49:37.985Z,65
2022-09-03T09:50:37.985Z,67
2022-09-03T09:51:37.986Z,61
2022-09-03T09:52:37.964Z,62
2022-09-03T09:53:37.964Z,61
2022-09-03T09:54:37.965Z,65
2022-09-03T09:55:37.965Z,68
2022-09-03T09:56:37.966Z,65
2022-09-03T09:57:37.966Z,74
2022-09-03T09:58:37.989Z,68
2022-09-03T09:59:37.990Z,69
2022-09-03T10:00:37.990Z,64
2022-09-03T10:01:37.991Z,67
2022-09-03T10:02:37.992Z,53
2022-09-03T10:03:37.992Z,58
2022-09-03T10:04:37.993Z,67
2022-09-03T10:05:37.993Z,60
2022-09-03T10:06:37.993Z,49
2022-09-03T10:07:37.972Z,51
2022-09-03T10:08:37.972Z,55
2022-09-03T10:09:37.972Z,55
2022-09-03T10:10:37.973Z,52
2022-09-03T10:11:37.974Z,48
2022-09-03T10:12:37.974Z,48
2022-09-03T10:13:37.997Z,51
2022-09-03T10:14:37.998Z,50
2022-09-03T10:15:37.998Z,57
2022-09-03T10:16:37.999Z,52
2022-09-03T10:17:37.999Z,57
2022-09-03T10:18:38.000Z,56
2022-09-03T10:19:38.000Z,54
2022-09-03T10:20:38.001Z,63
2022-09-03T10:21:38.001Z,64
2022-09-03T10:22:37.979Z,54
2022-09-03T10:23:37.980Z,50
2022-09-03T10:24:37.980Z,43
2022-09-03T10:25:37.981Z,50
2022-09-03T10:26:37.981Z,56
2022-09-03T10:27:37.982Z,51
2022-09-03T10:28:38.005Z,44
2022-09-03T10:29:38.005Z,51
2022-09-03T10:30:38.006Z,49
2022-09-03T10:31:38.006Z,51
2022-09-03T10:32:38.007Z,43
2022-09-03T10:33:38.007Z,43
2022-09-03T10:34:38.008Z,37
2022-09-03T10:35:38.008Z,38
2022-09-03T10:36:38.009Z,48
2022-09-03T10:37:37.987Z,40
2022-09-03T10:38:37.988Z,44
2022-09-03T10:39:37.988Z,48
2022-09-03T10:40:37.989Z,54
2022-09-03T10:41:37.989Z,49
2022-09-03T10:42:37.990Z,61
2022-09-03T10:43:38.013Z,64
2022-09-03T10:44:38.013Z,71
2022-09-03T10:45:38.014Z,70
2022-09-03T10:46:38.014Z,74
2022-09-03T10:47:38.015Z,75
2022-09-03T10:48:38.015Z,63
2022-09-03T10:49:38.016Z,64
2022-09-03T10:50:38.017Z,65
2022-09-03T10:51:38.017Z,65
2022-09-03T10:52:38.059Z,63
2022-09-03T10:53:37.996Z,63
2022-09-03T10:54:37.996Z,65
2022-09-03T10:55:37.997Z,70
2022-09-03T10:56:37.998Z,74
2022-09-03T10:57:37.998Z,62
2022-09-03T10:58:37.999Z,64
2022-09-03T10:59:38.022Z,62
2022-09-03T11:00:38.022Z,66
2022-09-03T11:01:38.031Z,62
2022-09-03T11:02:38.024Z,56
2022-09-03T11:03:38.024Z,59
2022-09-03T11:04:38.025Z,67
2022-09-03T11:05:38.025Z,58
2022-09-03T11:06:38.026Z,58
2022-09-03T11:07:38.026Z,54
2022-09-03T11:08:38.005Z,56
2022-09-03T11:09:38.005Z,57
2022-09-03T11:10:38.006Z,48
2022-09-03T11:11:38.006Z,51
2022-09-03T11:12:38.007Z,53
2022-09-03T11:13:38.007Z,56
2022-09-03T11:14:38.030Z,49
2022-09-03T11:15:38.031Z,60
2022-09-03T11:16:38.032Z,59
2022-09-03T11:17:38.032Z,46
2022-09-03T11:18:38.033Z,45
2022-09-03T11:19:38.033Z,54
2022-09-03T11:20:38.034Z,61
2022-09-03T11:21:38.035Z,56
2022-09-03T11:22:38.035Z,51
2022-09-03T11:23:38.013Z,56
2022-09-03T11:25:38.014Z,41
2022-09-03T11:26:38.015Z,48
2022-09-03T11:27:38.016Z,55
2022-09-03T11:28:38.016Z,53
2022-09-03T11:29:38.039Z,49
2022-09-03T11:30:38.040Z,63
2022-09-03T11:31:38.040Z,59
2022-09-03T11:32:38.041Z,54
2022-09-03T11:33:38.042Z,57
2022-09-03T11:34:38.042Z,56
2022-09-03T11:35:38.043Z,58
2022-09-03T11:36:38.044Z,63
2022-09-03T11:37:38.044Z,53
2022-09-03T11:38:38.022Z,59
2022-09-03T11:39:38.023Z,55
2022-09-03T11:40:38.023Z,52
2022-09-03T11:41:38.024Z,62
2022-09-03T11:42:38.025Z,59
2022-09-03T11:43:38.025Z,67
2022-09-03T11:44:38.048Z,58
2022-09-03T11:45:38.048Z,67
2022-09-03T11:46:38.049Z,60
2022-09-03T11:47:38.050Z,57
2022-09-03T11:48:38.050Z,49
2022-09-03T11:49:38.051Z,52
2022-09-03T11:50:38.052Z,61
2022-09-03T11:51:38.052Z,63
2022-09-03T11:52:38.053Z,61
2022-09-03T11:53:38.031Z,64
2022-09-03T11:54:38.031Z,55
2022-09-03T11:55:38.032Z,63
2022-09-03T11:57:38.033Z,65
2022-09-03T11:58:38.034Z,62
2022-09-03T11:59:38.057Z,49
2022-09-03T12:00:38.057Z,61
2022-09-03T12:01:38.057Z,56
2022-09-03T12:02:38.058Z,55
2022-09-03T12:03:38.059Z,52
2022-09-03T12:04:38.059Z,62
2022-09-03T12:05:38.060Z,58
2022-09-03T12:06:38.061Z,52
2022-09-03T12:08:38.087Z,60
2022-09-03T12:09:38.040Z,56
2022-09-03T12:10:38.040Z,52
2022-09-03T12:11:38.041Z,53
2022-09-03T12:12:38.041Z,53
2022-09-03T12:13:38.042Z,51
2022-09-03T12:14:38.065Z,45
2022-09-03T12:15:38.066Z,49
2022-09-03T12:16:38.066Z,46
2022-09-03T12:17:38.106Z,48
2022-09-03T12:18:38.067Z,46
2022-09-03T12:19:38.068Z,44
2022-09-03T12:20:38.133Z,42
2022-09-03T12:21:38.069Z,46
2022-09-03T12:22:38.069Z,45
2022-09-03T12:23:38.111Z,36
2022-09-03T12:24:38.048Z,35
2022-09-03T12:25:38.049Z,35
2022-09-03T12:26:38.049Z,27
2022-09-03T12:27:38.050Z,31
2022-09-03T12:28:38.050Z,27
2022-09-03T12:29:38.051Z,35
2022-09-03T12:30:38.074Z,41
2022-09-03T12:31:38.074Z,38
2022-09-03T12:32:38.075Z,38
2022-09-03T12:33:38.076Z,39
2022-09-03T12:34:38.076Z,40
2022-09-03T12:35:38.077Z,41
2022-09-03T12:36:38.077Z,42
2022-09-03T12:37:38.078Z,38
2022-09-03T12:38:38.095Z,30
2022-09-03T12:39:38.056Z,35
2022-09-03T12:40:38.057Z,43
2022-09-03T12:41:38.080Z,40
2022-09-03T12:42:38.058Z,36
2022-09-03T12:43:38.059Z,31
2022-09-03T12:44:38.087Z,40
2022-09-03T12:45:38.082Z,45
2022-09-03T12:46:38.083Z,45
2022-09-03T12:47:38.100Z,44
2022-09-03T12:48:38.084Z,39
2022-09-03T12:49:38.084Z,38
2022-09-03T12:50:38.101Z,33
2022-09-03T12:51:38.085Z,34
2022-09-03T12:52:38.086Z,32
2022-09-03T12:53:38.127Z,35
2022-09-03T12:54:38.064Z,31
2022-09-03T12:55:38.065Z,31
2022-09-03T12:56:38.065Z,30
2022-09-03T12:57:38.066Z,37
2022-09-03T12:58:38.067Z,38
2022-09-03T12:59:38.067Z,33
2022-09-03T13:00:38.090Z,44
2022-09-03T13:01:38.090Z,45
2022-09-03T13:02:38.099Z,37
2022-09-03T13:03:38.092Z,37
2022-09-03T13:04:38.092Z,41
2022-09-03T13:05:38.093Z,36
2022-09-03T13:06:38.093Z,34
2022-09-03T13:07:38.094Z,35
2022-09-03T13:08:38.094Z,34
2022-09-03T13:09:38.072Z,34
2022-09-03T13:10:38.073Z,39
2022-09-03T13:11:38.073Z,36
2022-09-03T13:12:38.074Z,36
2022-09-03T13:13:38.074Z,39
2022-09-03T13:14:38.075Z,40
2022-09-03T13:15:38.098Z,39
2022-09-03T13:16:38.098Z,29
2022-09-03T13:17:38.099Z,28
2022-09-03T13:18:38.099Z,34
2022-09-03T13:19:38.100Z,29
2022-09-03T13:20:38.100Z,31
2022-09-03T13:21:38.101Z,29
2022-09-03T13:22:38.101Z,27
2022-09-03T13:23:38.102Z,29
2022-09-03T13:24:38.080Z,27
2022-09-03T13:25:38.080Z,36
2022-09-03T13:26:38.081Z,35
2022-09-03T13:27:38.081Z,39
2022-09-03T13:28:38.082Z,44
2022-09-03T13:29:38.082Z,34
2022-09-03T13:30:39.652Z,41
2022-09-03T13:31:38.106Z,47
2022-09-03T13:32:38.115Z,45
2022-09-03T13:33:38.107Z,31
2022-09-03T13:34:38.107Z,27
2022-09-03T13:35:38.108Z,24
2022-09-03T13:36:38.109Z,32
2022-09-03T13:37:38.109Z,30
2022-09-03T13:38:38.110Z,32
2022-09-03T13:39:38.087Z,29
2022-09-03T13:40:38.088Z,31
2022-09-03T13:41:38.088Z,25
2022-09-03T13:42:38.089Z,20
2022-09-03T13:43:38.089Z,28
2022-09-03T13:44:38.090Z,28
2022-09-03T13:45:38.113Z,22
2022-09-03T13:46:38.113Z,23
2022-09-03T13:47:38.113Z,18
2022-09-03T13:48:38.114Z,17
2022-09-03T13:49:38.114Z,16
2022-09-03T13:50:38.115Z,18
2022-09-03T13:51:38.115Z,16
2022-09-03T13:52:38.116Z,20
2022-09-03T13:53:38.116Z,20
2022-09-03T13:54:38.094Z,17
2022-09-03T13:55:38.094Z,21
2022-09-03T13:56:38.095Z,24
2022-09-03T13:57:38.095Z,22
2022-09-03T13:58:38.096Z,18
2022-09-03T13:59:38.096Z,18
2022-09-03T14:00:38.119Z,21
2022-09-03T14:01:38.119Z,16
2022-09-03T14:02:38.120Z,24
2022-09-03T14:03:38.120Z,23
2022-09-03T14:04:38.120Z,21
2022-09-03T14:05:38.121Z,28
2022-09-03T14:06:38.121Z,27
2022-09-03T14:07:38.122Z,30
2022-09-03T14:08:38.122Z,17
2022-09-03T14:09:38.187Z,17
2022-09-03T14:10:38.100Z,17
2022-09-03T14:11:38.101Z,18
2022-09-03T14:12:38.123Z,17
2022-09-03T14:13:38.102Z,15
2022-09-03T14:14:38.102Z,15
2022-09-03T14:15:38.141Z,13
2022-09-03T14:16:38.125Z,17
2022-09-03T14:17:38.126Z,20
2022-09-03T14:18:38.142Z,20
2022-09-03T14:19:38.126Z,16
2022-09-03T14:20:38.127Z,15
2022-09-03T14:21:38.128Z,17
2022-09-03T14:22:38.128Z,17
2022-09-03T14:23:38.128Z,21
2022-09-03T14:24:38.129Z,22